Time;durP1;ratioP1;P1;durP2;ratioP2;P2;SDS_P1;SDS_P2;PMS_P1;PMS_P2;Temp;Humidity;BMP_temperature;BMP_pressure;BME280_temperature;BME280_humidity;BME280_pressure;Samples;Min_cycle;Max_cycle;Signal;HPM_P1;HPM_P2
2023/11/19 00:01:05;;;;;;;2.45;1.33;;;;;;;4.38;75.72;99098.09;6144426;23;20001;-94
2023/11/19 00:03:31;;;;;;;1.50;1.20;;;;;;;4.58;76.36;99113.69;6144723;23;20035;-95
2023/11/19 00:05:56;;;;;;;1.50;1.08;;;;;;;4.61;75.61;99103.38;6143267;23;20005;-96
2023/11/19 00:08:24;;;;;;;2.58;1.80;;;;;;;4.55;76.24;99109.66;6168438;23;20039;-94
2023/11/19 00:10:51;;;;;;;1.92;1.30;;;;;;;4.59;75.61;99121.47;6145201;23;20008;-96
2023/11/19 00:13:16;;;;;;;3.95;1.60;;;;;;;4.49;74.89;99097.25;6168914;23;19997;-95
2023/11/19 00:15:42;;;;;;;1.92;1.35;;;;;;;4.42;75.02;99092.06;6143975;23;20048;-93
2023/11/19 00:18:08;;;;;;;1.85;1.40;;;;;;;4.63;75.29;99124.50;6167534;23;20003;-94
2023/11/19 00:20:33;;;;;;;2.05;1.40;;;;;;;4.55;74.86;99106.19;6143829;23;20428;-95
2023/11/19 00:23:01;;;;;;;1.98;1.27;;;;;;;4.47;76.07;99080.69;6168703;23;20004;-94
2023/11/19 00:25:26;;;;;;;1.73;1.50;;;;;;;4.40;74.20;99080.00;6144953;23;20070;-93
2023/11/19 00:27:53;;;;;;;4.03;1.30;;;;;;;4.52;74.19;99106.66;6168927;23;20412;-96
2023/11/19 00:30:19;;;;;;;2.08;1.27;;;;;;;4.49;73.58;99085.81;6145210;23;20000;-94
2023/11/19 00:32:45;;;;;;;2.30;1.40;;;;;;;4.52;74.97;99111.97;6144782;23;20005;-96
2023/11/19 00:35:11;;;;;;;1.90;1.40;;;;;;;4.41;73.18;99095.75;6169040;23;20008;-95
2023/11/19 00:37:36;;;;;;;2.50;1.42;;;;;;;4.67;72.81;99117.63;6143392;23;20036;-95
2023/11/19 00:40:05;;;;;;;2.45;1.55;;;;;;;4.60;72.28;99112.41;6143806;23;20005;-95
2023/11/19 00:42:31;;;;;;;2.00;1.40;;;;;;;4.52;72.40;99096.78;6169613;23;20035;-95
2023/11/19 00:44:57;;;;;;;1.50;1.15;;;;;;;4.73;72.80;99137.19;6168495;23;20004;-96
2023/11/19 00:47:24;;;;;;;1.63;1.20;;;;;;;4.74;72.91;99126.31;6168733;23;20070;-96
2023/11/19 00:49:50;;;;;;;2.80;1.60;;;;;;;4.50;72.79;99104.22;6143895;23;20000;-95
2023/11/19 00:55:38;;;;;;;1.48;1.20;;;;;;;4.75;71.67;99111.09;6219250;23;20035;-95
2023/11/19 00:58:04;;;;;;;3.00;1.50;;;;;;;4.55;71.67;99090.19;6144195;23;20000;-96
2023/11/19 01:00:32;;;;;;;1.67;1.30;;;;;;;4.34;72.15;99055.13;6144476;23;20329;-94
2023/11/19 01:02:58;;;;;;;1.85;1.27;;;;;;;4.44;72.20;99066.00;6145429;23;20004;-95
2023/11/19 01:05:24;;;;;;;1.92;1.33;;;;;;;4.49;72.14;99083.94;6168152;23;20083;-96
2023/11/19 01:07:50;;;;;;;1.67;1.27;;;;;;;4.63;72.03;99092.50;6143535;23;20000;-95
2023/11/19 01:10:15;;;;;;;3.60;1.60;;;;;;;4.56;72.06;99102.47;6143547;23;20058;-94
2023/11/19 01:12:43;;;;;;;3.63;1.60;;;;;;;4.45;72.65;99094.25;6143333;23;20063;-96
2023/11/19 01:15:12;;;;;;;2.00;1.40;;;;;;;4.34;71.53;99063.13;6168497;23;20013;-96
2023/11/19 01:17:40;;;;;;;1.75;1.40;;;;;;;4.28;71.69;99096.03;6144299;23;20047;-95
2023/11/19 01:20:06;;;;;;;2.15;1.45;;;;;;;4.44;71.71;99108.66;6142958;23;20004;-95
2023/11/19 01:22:32;;;;;;;2.95;1.63;;;;;;;4.40;71.25;99085.34;6144124;23;20000;-95
2023/11/19 01:24:58;;;;;;;2.58;1.60;;;;;;;4.51;71.14;99094.38;6167592;23;20016;-96
2023/11/19 01:27:24;;;;;;;2.25;1.45;;;;;;;4.50;70.24;99095.41;6144779;23;20095;-96
2023/11/19 01:29:50;;;;;;;3.15;1.73;;;;;;;4.41;70.57;99090.44;6171163;23;19997;-96
2023/11/19 01:32:16;;;;;;;2.35;1.60;;;;;;;4.52;70.08;99117.31;6171726;23;20415;-96
2023/11/19 01:34:41;;;;;;;2.53;1.50;;;;;;;4.35;69.85;99087.91;6146118;23;20004;-95
2023/11/19 01:37:09;;;;;;;2.00;1.20;;;;;;;4.38;70.78;99106.09;6145712;23;19992;-95
2023/11/19 01:39:38;;;;;;;2.28;1.40;;;;;;;4.39;69.99;99087.19;6171503;23;20004;-96
2023/11/19 01:42:04;;;;;;;2.42;1.60;;;;;;;4.58;70.49;99106.50;6172501;23;19996;-95
2023/11/19 01:44:29;;;;;;;3.40;1.60;;;;;;;4.53;69.39;99106.41;6146421;23;20004;-95
2023/11/19 01:46:55;;;;;;;1.80;1.35;;;;;;;4.49;69.39;99088.47;6170366;23;20001;-95
2023/11/19 01:49:21;;;;;;;2.83;1.30;;;;;;;4.54;69.00;99102.69;6146110;23;20070;-95
2023/11/19 01:51:46;;;;;;;3.00;1.38;;;;;;;4.63;70.41;99125.28;6146145;23;20393;-96
2023/11/19 01:54:12;;;;;;;4.60;1.20;;;;;;;4.53;69.16;99098.41;6170196;23;20424;-96
2023/11/19 01:56:40;;;;;;;2.78;1.30;;;;;;;4.57;69.79;99093.44;6170000;23;20004;-96
2023/11/19 01:59:06;;;;;;;2.88;1.27;;;;;;;4.60;68.28;99092.94;6146436;23;20090;-95
2023/11/19 02:01:39;;;;;;;1.95;1.02;;;;;;;4.69;68.91;99117.38;6171227;23;20007;-96
2023/11/19 02:04:07;;;;;;;2.28;1.35;;;;;;;4.71;69.06;99116.13;6147598;23;20015;-96
2023/11/19 02:06:33;;;;;;;2.05;1.40;;;;;;;4.74;68.63;99107.63;6170729;23;20036;-95
2023/11/19 02:09:07;;;;;;;2.03;1.30;;;;;;;4.56;69.36;99092.59;6171202;23;20058;-96
2023/11/19 02:11:40;;;;;;;2.17;1.40;;;;;;;4.67;68.89;99096.31;6149029;23;20005;-94
2023/11/19 02:14:06;;;;;;;1.75;1.15;;;;;;;4.46;68.73;99095.06;6170837;23;20094;-95
2023/11/19 02:16:33;;;;;;;2.10;1.50;;;;;;;4.57;68.87;99093.44;6169267;23;20047;-95
2023/11/19 02:19:00;;;;;;;1.92;1.42;;;;;;;4.47;69.49;99087.91;6195272;23;20055;-96
2023/11/19 02:21:33;;;;;;;2.03;1.30;;;;;;;4.63;69.14;99122.63;6144712;23;20083;-95
2023/11/19 02:23:58;;;;;;;1.80;1.30;;;;;;;4.53;69.39;99092.28;6169021;23;20008;-95
2023/11/19 02:26:32;;;;;;;2.13;1.52;;;;;;;4.46;68.35;99089.72;6145349;23;20000;-96
2023/11/19 02:29:00;;;;;;;1.60;1.20;;;;;;;4.60;67.51;99099.09;6146829;23;19993;-95
2023/11/19 02:31:28;;;;;;;2.08;1.50;;;;;;;4.44;67.82;99094.47;6168559;23;20008;-94
2023/11/19 02:33:56;;;;;;;1.95;1.40;;;;;;;4.49;68.59;99097.25;6169015;23;20436;-94
2023/11/19 02:36:22;;;;;;;2.45;1.55;;;;;;;4.51;68.29;99111.19;6170712;23;20001;-95
2023/11/19 02:38:47;;;;;;;3.13;1.70;;;;;;;4.36;67.68;99074.34;6169996;23;20066;-94
2023/11/19 02:41:14;;;;;;;1.40;1.20;;;;;;;4.37;68.55;99083.16;6145155;23;19997;-94
2023/11/19 02:43:44;;;;;;;2.10;1.45;;;;;;;4.41;68.09;99095.75;6168142;23;20087;-94
2023/11/19 02:46:10;;;;;;;1.90;1.30;;;;;;;4.48;67.53;99100.16;6145824;23;20359;-95
2023/11/19 02:48:41;;;;;;;3.20;1.35;;;;;;;4.49;67.91;99099.13;6172232;23;19997;-96
2023/11/19 02:51:11;;;;;;;2.70;1.60;;;;;;;4.54;67.35;99091.22;6171100;23;19997;-95
2023/11/19 02:53:39;;;;;;;3.35;1.70;;;;;;;4.77;67.05;99123.19;6220105;23;19996;-96
2023/11/19 02:56:20;;;;;;;2.17;1.60;;;;;;;4.64;67.66;99126.91;6145915;23;20624;-96
2023/11/19 02:58:49;;;;;;;2.60;1.43;;;;;;;4.53;67.59;99125.09;6175512;23;20000;-95
2023/11/19 03:01:23;;;;;;;3.35;1.60;;;;;;;4.45;67.89;99104.91;6146939;23;20228;-95
2023/11/19 03:03:57;;;;;;;2.00;1.40;;;;;;;4.57;66.82;99123.56;6148586;23;20027;-96
2023/11/19 03:06:23;;;;;;;1.88;1.48;;;;;;;4.59;66.89;99110.81;6149217;23;20488;-94
2023/11/19 03:08:48;;;;;;;2.10;1.45;;;;;;;4.65;66.77;99133.06;6143460;23;19995;-95
2023/11/19 03:11:18;;;;;;;2.13;1.40;;;;;;;4.69;66.53;99147.56;6169154;23;20005;-95
2023/11/19 03:13:43;;;;;;;2.15;1.27;;;;;;;4.52;66.79;99120.78;6170906;23;20004;-94
2023/11/19 03:16:11;;;;;;;1.92;1.30;;;;;;;4.66;66.16;99140.00;6144488;23;20064;-95
2023/11/19 03:18:38;;;;;;;1.77;1.30;;;;;;;4.56;66.42;99121.94;6170480;23;20040;-94
2023/11/19 03:21:05;;;;;;;2.30;1.60;;;;;;;4.64;66.52;99139.44;6143712;23;19997;-94
2023/11/19 03:23:31;;;;;;;2.70;1.63;;;;;;;4.65;66.63;99141.88;6145331;23;19996;-96
2023/11/19 03:25:57;;;;;;;2.10;1.48;;;;;;;4.57;67.43;99128.91;6145534;23;20463;-96
2023/11/19 03:28:37;;;;;;;2.50;1.63;;;;;;;4.56;66.71;99131.78;6145231;23;19996;-96
2023/11/19 03:31:09;;;;;;;3.10;1.80;;;;;;;4.84;66.67;99157.72;6148407;23;20000;-96
2023/11/19 03:33:37;;;;;;;2.38;1.70;;;;;;;4.79;66.29;99165.59;6145278;23;20012;-96
2023/11/19 03:36:03;;;;;;;2.00;1.60;;;;;;;4.64;66.36;99147.44;6146408;23;20008;-96
2023/11/19 03:38:28;;;;;;;2.50;1.52;;;;;;;4.56;66.46;99151.25;6143997;23;20000;-96
2023/11/19 03:40:54;;;;;;;2.25;1.60;;;;;;;4.64;66.91;99171.44;6144471;23;20007;-95
2023/11/19 03:43:22;;;;;;;1.98;1.30;;;;;;;4.64;66.32;99166.91;6144006;23;20078;-96
2023/11/19 03:45:48;;;;;;;3.85;1.98;;;;;;;4.50;68.34;99178.84;6169837;23;20035;-95
2023/11/19 03:48:16;;;;;;;2.55;1.73;;;;;;;4.54;67.42;99169.34;6169737;23;19988;-96
2023/11/19 03:50:42;;;;;;;2.55;1.83;;;;;;;4.62;66.59;99182.31;6168719;23;20424;-96
2023/11/19 03:53:08;;;;;;;1.85;1.55;;;;;;;4.56;67.86;99171.78;6144008;23;19996;-94
2023/11/19 03:55:34;;;;;;;1.80;1.45;;;;;;;4.63;66.60;99193.81;6142859;23;20035;-95
2023/11/19 03:57:59;;;;;;;2.50;1.88;;;;;;;4.56;66.96;99196.59;6144553;23;20359;-95
2023/11/19 04:00:25;;;;;;;1.77;1.48;;;;;;;4.44;66.91;99166.47;6144461;23;20009;-95
2023/11/19 04:02:53;;;;;;;3.70;1.90;;;;;;;4.58;66.27;99185.69;6143475;23;20054;-96
2023/11/19 04:05:19;;;;;;;2.60;1.50;;;;;;;4.44;65.69;99185.94;6167705;23;20075;-96
2023/11/19 04:07:45;;;;;;;2.50;1.90;;;;;;;4.42;66.75;99196.03;6143954;23;20087;-96
2023/11/19 04:10:10;;;;;;;2.60;1.58;;;;;;;4.40;66.59;99189.28;6143048;23;20043;-95
2023/11/19 04:12:38;;;;;;;2.88;1.75;;;;;;;4.56;67.45;99219.78;6169140;23;20069;-95
2023/11/19 04:15:07;;;;;;;2.40;1.60;;;;;;;4.37;65.88;99203.09;6143949;23;20004;-96
2023/11/19 04:17:33;;;;;;;3.03;1.52;;;;;;;4.36;67.24;99210.28;6143405;23;20022;-96
2023/11/19 04:19:59;;;;;;;3.95;2.05;;;;;;;4.27;66.38;99201.00;6142749;23;20004;-96
2023/11/19 04:22:24;;;;;;;3.00;1.83;;;;;;;4.41;66.80;99226.38;6143233;23;20004;-94
2023/11/19 04:24:53;;;;;;;2.80;1.67;;;;;;;4.27;66.50;99193.00;6166815;23;19993;-96
2023/11/19 04:27:22;;;;;;;2.67;1.70;;;;;;;4.45;66.74;99221.41;6168855;23;20439;-95
2023/11/19 04:29:47;;;;;;;2.45;1.85;;;;;;;4.42;66.40;99225.34;6143888;23;20017;-95
2023/11/19 04:32:13;;;;;;;2.33;1.45;;;;;;;4.38;65.90;99210.88;6169517;23;20012;-96
2023/11/19 04:34:38;;;;;;;3.30;1.85;;;;;;;4.35;65.97;99218.50;6144323;23;20001;-96
2023/11/19 04:37:07;;;;;;;1.98;1.65;;;;;;;4.18;66.91;99195.22;6144587;23;20036;-95
2023/11/19 04:39:38;;;;;;;3.67;1.92;;;;;;;4.44;66.35;99233.94;6146183;23;20000;-94
2023/11/19 04:42:04;;;;;;;3.13;1.77;;;;;;;4.38;65.34;99215.38;6146683;23;20348;-95
2023/11/19 04:44:36;;;;;;;3.75;2.00;;;;;;;4.45;65.76;99235.53;6145414;23;20001;-95
2023/11/19 04:47:02;;;;;;;;;;;;;;;4.53;65.99;99258.38;6145447;23;20150;-96
2023/11/19 04:49:30;;;;;;;3.13;1.50;;;;;;;4.40;66.02;99243.44;6170074;23;19903;-96
2023/11/19 04:51:56;;;;;;;3.95;2.25;;;;;;;4.38;66.36;99239.34;6146089;23;20324;-96
2023/11/19 04:54:24;;;;;;;2.08;1.85;;;;;;;4.49;66.15;99256.44;6145812;23;20011;-96
2023/11/19 04:56:50;;;;;;;3.53;1.80;;;;;;;4.56;65.98;99276.56;6145201;23;19997;-95
2023/11/19 04:59:15;;;;;;;2.38;1.77;;;;;;;4.52;66.21;99259.41;6144059;23;20084;-94
2023/11/19 05:01:41;;;;;;;3.58;2.15;;;;;;;4.43;65.83;99263.47;6169259;23;20024;-94
2023/11/19 05:04:07;;;;;;;2.47;1.88;;;;;;;4.28;65.41;99239.94;6170987;23;20052;-95
2023/11/19 05:06:33;;;;;;;3.22;2.10;;;;;;;4.33;65.20;99261.38;6169657;23;20069;-96
2023/11/19 05:09:04;;;;;;;4.25;2.30;;;;;;;4.42;65.39;99280.50;6146267;23;20004;-94
2023/11/19 05:11:34;;;;;;;2.60;2.00;;;;;;;4.37;65.75;99269.72;6173248;23;20478;-94
2023/11/19 05:13:59;;;;;;;3.28;1.90;;;;;;;4.54;65.40;99300.00;6149328;23;20007;-94
2023/11/19 05:16:26;;;;;;;2.72;2.10;;;;;;;4.39;65.84;99271.13;6145399;23;20024;-95
2023/11/19 05:18:52;;;;;;;3.03;2.22;;;;;;;4.36;66.55;99284.13;6145159;23;20012;-94
2023/11/19 05:21:21;;;;;;;4.28;2.38;;;;;;;4.34;65.54;99275.53;6144955;23;19997;-95
2023/11/19 05:23:46;;;;;;;3.47;2.15;;;;;;;4.42;65.63;99277.84;6147383;23;20005;-95
2023/11/19 05:26:25;;;;;;;3.10;2.17;;;;;;;4.50;64.95;99282.84;6171279;23;20003;-94
2023/11/19 05:28:50;;;;;;;3.22;2.40;;;;;;;4.50;66.07;99292.69;6172549;23;20016;-95
2023/11/19 05:31:16;;;;;;;3.03;2.25;;;;;;;4.59;64.64;99294.00;6170304;23;20004;-94
2023/11/19 05:33:44;;;;;;;3.63;2.42;;;;;;;4.56;65.82;99315.75;6171193;23;20347;-95
2023/11/19 05:36:11;;;;;;;3.33;2.10;;;;;;;4.50;66.06;99298.03;6144983;23;20024;-96
2023/11/19 05:38:39;;;;;;;3.70;2.20;;;;;;;4.70;64.67;99337.69;6146423;23;20091;-94
2023/11/19 05:41:09;;;;;;;2.47;1.73;;;;;;;4.54;64.88;99310.66;6146657;23;20000;-96
2023/11/19 05:43:35;;;;;;;3.95;2.38;;;;;;;4.45;65.07;99298.72;6196340;23;20069;-96
2023/11/19 05:46:42;;;;;;;3.53;1.92;;;;;;;4.61;64.71;99303.38;6145884;23;20487;-96
2023/11/19 05:49:13;;;;;;;3.30;2.42;;;;;;;4.53;65.01;99289.59;6110540;23;20497;-96
2023/11/19 05:51:40;;;;;;;3.20;2.08;;;;;;;4.65;64.46;99295.72;6110421;23;20005;-95
2023/11/19 05:54:11;;;;;;;4.10;2.28;;;;;;;4.67;64.91;99309.66;6134752;23;20005;-96
2023/11/19 05:56:39;;;;;;;5.82;2.38;;;;;;;4.77;64.14;99301.03;6133212;23;20001;-96
2023/11/19 05:59:14;;;;;;;3.95;2.20;;;;;;;4.73;64.27;99298.06;6110585;23;20128;-95
2023/11/19 06:01:42;;;;;;;4.22;2.50;;;;;;;4.69;63.68;99280.06;6134863;23;20385;-95
2023/11/19 06:04:12;;;;;;;5.53;2.30;;;;;;;4.90;63.06;99316.00;6110362;23;20005;-96
2023/11/19 06:06:37;;;;;;;4.90;2.70;;;;;;;4.74;64.48;99305.00;6111063;23;20375;-94
2023/11/19 06:09:06;;;;;;;4.10;2.25;;;;;;;4.59;65.06;99294.78;6110814;23;20040;-94
2023/11/19 06:11:38;;;;;;;4.90;2.83;;;;;;;4.64;64.20;99288.75;6110366;23;20053;-95
2023/11/19 06:14:07;;;;;;;4.55;2.78;;;;;;;4.54;65.55;99300.00;6108554;23;20005;-95
2023/11/19 06:16:34;;;;;;;4.00;2.70;;;;;;;4.75;64.95;99319.97;6132914;23;20101;-96
2023/11/19 06:19:00;;;;;;;4.00;2.85;;;;;;;4.90;64.11;99330.19;6096523;23;20004;-94
2023/11/19 06:21:50;;;;;;;4.60;2.72;;;;;;;5.04;64.44;99346.75;6145492;23;20004;-96
2023/11/19 06:24:26;;;;;;;3.88;2.40;;;;;;;4.95;63.46;99346.28;6194130;23;20087;-95
2023/11/19 06:26:58;;;;;;;2.95;2.28;;;;;;;4.91;63.70;99318.44;6170243;23;20023;-96
2023/11/19 06:29:50;;;;;;;3.22;2.40;;;;;;;4.99;63.32;99330.63;6166695;23;20001;-96
2023/11/19 06:32:32;;;;;;;4.82;3.00;;;;;;;4.98;63.77;99329.81;6104841;23;20030;-94
2023/11/19 06:35:05;;;;;;;4.45;2.80;;;;;;;4.98;63.22;99326.31;6128803;23;20002;-95
2023/11/19 06:37:44;;;;;;;5.15;3.10;;;;;;;5.16;64.71;99352.09;6105357;23;20006;-96
2023/11/19 06:40:19;;;;;;;5.85;3.60;;;;;;;5.17;63.16;99335.03;6104721;23;20010;-94
2023/11/19 06:42:52;;;;;;;6.93;3.72;;;;;;;4.91;63.39;99315.78;6129289;23;20356;-95
2023/11/19 06:45:59;;;;;;;;;;;;;;;5.19;63.52;99359.63;6105481;23;20001;-95
2023/11/19 06:48:36;;;;;;;6.00;3.58;;;;;;;5.18;64.84;99369.47;6128651;23;19905;-95
2023/11/19 06:51:07;;;;;;;10.80;5.32;;;;;;;5.17;63.55;99370.53;6128492;23;20068;-96
2023/11/19 06:53:35;;;;;;;20.63;7.82;;;;;;;4.93;64.49;99336.91;6104300;23;20038;-96
2023/11/19 06:56:19;;;;;;;9.60;4.25;;;;;;;4.86;63.50;99350.34;6103988;23;20455;-96
2023/11/19 07:02:28;;;;;;;6.60;3.78;;;;;;;4.93;63.31;99352.91;6129639;23;20060;-93
2023/11/19 07:04:56;;;;;;;7.72;4.03;;;;;;;4.85;63.26;99338.06;6129777;23;20014;-96
2023/11/19 07:07:30;;;;;;;6.25;3.67;;;;;;;5.03;63.57;99364.63;6100062;23;20002;-96
2023/11/19 07:09:59;;;;;;;7.70;4.22;;;;;;;4.92;63.11;99354.78;6097155;23;20055;-95
2023/11/19 07:12:28;;;;;;;8.10;4.72;;;;;;;4.96;63.54;99358.59;6051193;23;20010;-96
2023/11/19 07:14:55;;;;;;;7.38;4.10;;;;;;;4.93;63.34;99340.38;6053187;23;20025;-95
2023/11/19 07:17:20;;;;;;;6.50;4.45;;;;;;;4.97;63.57;99365.53;6139953;23;20099;-94
2023/11/19 07:19:49;;;;;;;5.90;3.60;;;;;;;4.87;63.61;99359.97;6141425;23;20005;-95
2023/11/19 07:22:18;;;;;;;7.82;4.53;;;;;;;5.00;63.49;99374.94;6139395;23;20067;-95
2023/11/19 07:24:43;;;;;;;5.18;3.33;;;;;;;5.19;61.93;99416.50;6117490;23;20008;-96
2023/11/19 07:27:09;;;;;;;11.73;4.40;;;;;;;5.12;62.31;99399.78;6138966;23;20001;-96
2023/11/19 07:29:37;;;;;;;4.93;3.17;;;;;;;5.12;62.41;99391.75;6115740;23;20000;-95
2023/11/19 07:32:03;;;;;;;5.80;3.50;;;;;;;5.15;62.55;99380.63;6138547;23;20001;-95
2023/11/19 07:34:29;;;;;;;5.15;3.28;;;;;;;5.41;62.27;99402.56;6164636;23;20167;-95
2023/11/19 07:36:59;;;;;;;6.75;3.53;;;;;;;5.46;62.90;99405.34;6115107;23;20016;-95
2023/11/19 07:39:25;;;;;;;9.35;4.75;;;;;;;5.40;62.18;99400.94;6144047;23;20004;-94
2023/11/19 07:41:50;;;;;;;5.55;3.40;;;;;;;5.57;61.37;99411.72;6168467;23;20077;-95
2023/11/19 07:44:16;;;;;;;6.32;3.92;;;;;;;5.50;61.77;99398.50;6144319;23;20431;-95
2023/11/19 07:46:44;;;;;;;4.93;3.50;;;;;;;5.60;60.88;99422.75;6143370;23;20008;-95
2023/11/19 07:49:10;;;;;;;8.40;4.03;;;;;;;5.52;60.56;99398.22;6169217;23;20408;-95
2023/11/19 07:51:36;;;;;;;5.47;3.05;;;;;;;5.67;60.56;99414.59;6168389;23;20011;-96
2023/11/19 07:54:02;;;;;;;6.88;3.47;;;;;;;5.53;61.53;99405.22;6143926;23;20457;-96
2023/11/19 07:56:27;;;;;;;22.45;14.38;;;;;;;5.62;61.59;99404.63;6143682;23;20092;-96
2023/11/19 07:58:54;;;;;;;39.22;23.13;;;;;;;5.64;62.56;99399.88;6169838;23;20075;-95
2023/11/19 08:01:20;;;;;;;6.47;3.72;;;;;;;5.87;60.36;99420.38;6172309;23;20001;-96
2023/11/19 08:03:46;;;;;;;4.47;3.28;;;;;;;5.87;60.58;99436.41;6145826;23;20474;-95
2023/11/19 08:06:19;;;;;;;4.80;3.30;;;;;;;5.74;60.38;99430.50;6171428;23;20062;-95
2023/11/19 08:08:45;;;;;;;4.45;2.90;;;;;;;5.79;61.14;99431.44;6172270;23;19996;-96
2023/11/19 08:11:11;;;;;;;6.47;3.53;;;;;;;5.76;59.76;99423.88;6143828;23;20000;-94
2023/11/19 08:13:36;;;;;;;4.45;2.85;;;;;;;5.73;59.72;99426.19;6168633;23;20049;-96
2023/11/19 08:16:02;;;;;;;8.00;3.67;;;;;;;5.76;60.18;99426.53;6147691;23;20016;-95
2023/11/19 08:18:30;;;;;;;5.40;2.97;;;;;;;5.77;60.33;99427.34;6147169;23;20000;-95
2023/11/19 08:21:00;;;;;;;6.65;3.25;;;;;;;5.80;59.73;99438.38;6146186;23;20091;-95
2023/11/19 08:23:27;;;;;;;8.07;3.42;;;;;;;5.58;60.51;99408.81;6171261;23;20023;-96
2023/11/19 08:25:56;;;;;;;10.50;4.20;;;;;;;5.84;60.87;99428.03;6145291;23;20075;-96
2023/11/19 08:28:25;;;;;;;6.78;3.53;;;;;;;5.73;60.05;99428.84;6169873;23;20368;-95
2023/11/19 08:30:51;;;;;;;4.32;2.65;;;;;;;5.80;60.35;99414.34;6169487;23;19996;-96
2023/11/19 08:33:16;;;;;;;4.28;3.13;;;;;;;5.84;60.29;99420.03;6143671;23;20009;-93
2023/11/19 08:35:43;;;;;;;4.18;2.95;;;;;;;5.78;59.37;99397.72;6167164;23;20080;-94
2023/11/19 08:38:08;;;;;;;8.02;3.67;;;;;;;5.91;59.93;99433.25;6167130;23;19997;-93
2023/11/19 08:40:38;;;;;;;4.07;2.80;;;;;;;5.77;59.94;99406.81;6141917;23;20491;-95
2023/11/19 08:43:07;;;;;;;6.93;2.85;;;;;;;5.80;60.26;99402.84;6167052;23;20004;-93
2023/11/19 08:45:33;;;;;;;4.00;2.92;;;;;;;6.07;60.83;99443.22;6143906;23;20010;-93
2023/11/19 08:47:59;;;;;;;5.03;3.10;;;;;;;6.14;60.49;99443.88;6166884;23;20005;-94
2023/11/19 08:50:24;;;;;;;5.03;2.88;;;;;;;6.02;58.86;99427.09;6166909;23;20015;-94
2023/11/19 08:52:53;;;;;;;4.25;2.72;;;;;;;5.95;58.93;99413.84;6142597;23;20000;-96
2023/11/19 08:55:19;;;;;;;4.40;2.83;;;;;;;5.97;59.48;99411.75;6169917;23;20011;-96
2023/11/19 08:57:47;;;;;;;3.78;2.80;;;;;;;5.96;59.66;99412.81;6144036;23;20004;-96
2023/11/19 09:00:15;;;;;;;4.63;3.20;;;;;;;6.02;59.21;99421.75;6143912;23;20012;-96
2023/11/19 09:02:42;;;;;;;6.55;3.28;;;;;;;6.10;58.96;99418.72;6143227;23;20004;-96
2023/11/19 09:05:08;;;;;;;4.00;2.85;;;;;;;6.08;58.30;99426.16;6143720;23;19996;-96
2023/11/19 09:07:34;;;;;;;4.35;2.90;;;;;;;6.11;58.30;99435.56;6168264;23;20432;-96
2023/11/19 09:10:05;;;;;;;4.28;2.55;;;;;;;6.10;58.94;99423.22;6143574;23;20032;-95
2023/11/19 09:12:31;;;;;;;3.65;2.35;;;;;;;6.15;58.78;99437.50;6169066;23;20007;-96
2023/11/19 09:14:59;;;;;;;4.45;2.88;;;;;;;6.04;58.53;99420.47;6168714;23;20000;-96
2023/11/19 09:17:24;;;;;;;5.00;3.08;;;;;;;6.27;58.63;99429.47;6169219;23;20017;-96
2023/11/19 09:19:52;;;;;;;4.05;2.70;;;;;;;6.21;58.82;99427.72;6143842;23;20007;-96
2023/11/19 09:22:21;;;;;;;3.78;2.80;;;;;;;6.19;58.11;99397.75;6144271;23;20080;-96
2023/11/19 09:24:48;;;;;;;5.03;3.25;;;;;;;6.19;58.18;99403.91;6143520;23;20059;-95
2023/11/19 09:27:13;;;;;;;3.88;2.92;;;;;;;6.25;57.43;99397.59;6192456;23;20466;-95
2023/11/19 09:29:39;;;;;;;4.13;2.60;;;;;;;6.25;57.57;99392.25;6142376;23;19992;-96
2023/11/19 09:35:27;;;;;;;4.00;2.80;;;;;;;6.26;56.89;99396.53;6223861;23;20056;-94
2023/11/19 09:37:52;;;;;;;6.88;3.33;;;;;;;6.39;57.03;99418.69;6170274;23;20435;-94
2023/11/19 09:40:18;;;;;;;3.35;2.60;;;;;;;6.42;56.96;99407.53;6144957;23;20004;-95
2023/11/19 09:42:47;;;;;;;5.90;3.10;;;;;;;6.44;57.25;99429.50;6167735;23;20025;-95
2023/11/19 09:45:14;;;;;;;4.30;3.08;;;;;;;6.45;57.88;99401.69;6168204;23;20092;-96
2023/11/19 09:47:42;;;;;;;3.63;2.90;;;;;;;6.78;57.18;99416.97;6167317;23;20325;-96
2023/11/19 09:50:09;;;;;;;5.82;2.75;;;;;;;6.80;57.11;99404.16;6144662;23;20024;-94
2023/11/19 09:52:34;;;;;;;5.20;3.00;;;;;;;6.90;56.66;99392.81;6146710;23;20008;-95
2023/11/19 09:55:00;;;;;;;4.75;3.15;;;;;;;6.97;56.91;99409.53;6169318;23;20028;-96
2023/11/19 09:57:26;;;;;;;4.47;2.95;;;;;;;6.95;56.99;99394.75;6144495;23;20080;-96
2023/11/19 09:59:52;;;;;;;5.38;3.13;;;;;;;7.06;56.54;99420.63;6144573;23;20009;-95
2023/11/19 10:02:20;;;;;;;5.18;3.08;;;;;;;7.01;56.43;99426.69;6168935;23;20405;-94
2023/11/19 10:04:47;;;;;;;4.20;3.15;;;;;;;7.04;56.12;99431.59;6145500;23;20058;-93
2023/11/19 10:07:12;;;;;;;3.72;2.78;;;;;;;6.83;57.04;99394.84;6144768;23;20078;-95
2023/11/19 10:09:38;;;;;;;4.93;3.05;;;;;;;6.77;56.60;99395.81;6145070;23;20000;-95
2023/11/19 10:12:05;;;;;;;7.38;4.10;;;;;;;6.62;57.25;99393.69;6147747;23;20075;-95
2023/11/19 10:14:30;;;;;;;13.20;5.70;;;;;;;6.74;57.26;99425.72;6145315;23;20004;-95
2023/11/19 10:16:56;;;;;;;6.55;3.45;;;;;;;6.70;57.44;99422.72;6170003;23;20106;-95
2023/11/19 10:19:25;;;;;;;7.55;3.85;;;;;;;6.59;57.66;99392.31;6169844;23;20012;-96
2023/11/19 10:21:53;;;;;;;13.45;6.25;;;;;;;6.60;57.64;99395.78;6149235;23;20000;-96
2023/11/19 10:24:33;;;;;;;18.52;7.70;;;;;;;6.61;56.96;99384.84;6171902;23;20566;-94
2023/11/19 10:27:03;;;;;;;3.50;2.60;;;;;;;6.74;56.88;99389.06;6172295;23;20102;-95
2023/11/19 10:29:38;;;;;;;3.30;2.53;;;;;;;6.71;56.71;99394.13;6170349;23;19997;-94
2023/11/19 10:32:06;;;;;;;4.30;3.13;;;;;;;6.68;57.21;99396.22;6145035;23;20095;-94
2023/11/19 10:34:33;;;;;;;4.35;2.53;;;;;;;6.62;57.24;99366.91;6170045;23;20011;-96
2023/11/19 10:36:59;;;;;;;2.97;2.25;;;;;;;6.75;56.39;99360.47;6145098;23;20000;-95
2023/11/19 10:39:50;;;;;;;4.13;2.72;;;;;;;6.81;57.24;99373.69;6144227;23;20005;-95
2023/11/19 10:42:22;;;;;;;4.03;3.05;;;;;;;6.92;56.62;99371.97;6192832;23;20067;-96
2023/11/19 10:44:50;;;;;;;3.75;3.00;;;;;;;6.98;55.71;99362.97;6169967;23;20005;-96
2023/11/19 10:47:22;;;;;;;4.28;2.90;;;;;;;7.15;55.54;99359.44;6145017;23;20007;-96
2023/11/19 10:49:50;;;;;;;;;;;;;;;7.25;55.87;99395.22;6147957;23;19997;-95
2023/11/19 10:52:20;;;;;;;3.97;2.88;;;;;;;7.18;55.93;99391.91;6170382;23;19907;-96
2023/11/19 10:54:52;;;;;;;4.38;3.33;;;;;;;6.99;56.05;99372.63;6145746;23;20008;-96
2023/11/19 10:57:20;;;;;;;4.85;3.22;;;;;;;6.96;56.87;99370.41;6168912;23;20063;-96
2023/11/19 10:59:46;;;;;;;7.35;3.95;;;;;;;7.02;56.99;99368.63;6169509;23;20084;-96
2023/11/19 11:02:15;;;;;;;11.23;5.65;;;;;;;7.09;57.57;99380.78;6145325;23;20005;-95
2023/11/19 11:04:50;;;;;;;4.28;3.13;;;;;;;7.06;56.97;99364.41;6169659;23;20004;-95
2023/11/19 11:07:16;;;;;;;4.47;3.20;;;;;;;7.08;55.53;99373.81;6147422;23;20038;-95
2023/11/19 11:09:42;;;;;;;3.80;2.83;;;;;;;7.24;55.60;99393.59;6168244;23;20387;-96
2023/11/19 11:12:16;;;;;;;5.75;3.58;;;;;;;7.15;55.20;99367.47;6168115;23;20071;-96
2023/11/19 11:14:49;;;;;;;4.45;2.85;;;;;;;7.11;55.72;99385.09;6148824;23;20063;-95
2023/11/19 11:17:17;;;;;;;5.82;3.35;;;;;;;7.04;56.45;99364.66;6146758;23;20012;-95
2023/11/19 11:19:55;;;;;;;;;;;;;;;;;;;;;
2023/11/19 11:29:41;;;;;;;5.68;3.42;;;;;;;7.21;56.35;99377.22;6141124;23;20025;-96
2023/11/19 11:32:29;;;;;;;5.82;3.40;;;;;;;7.27;56.44;99378.91;6169660;23;20005;-95
2023/11/19 11:35:00;;;;;;;6.13;2.80;;;;;;;7.24;56.23;99377.53;6193510;23;20083;-96
2023/11/19 11:37:30;;;;;;;4.60;3.30;;;;;;;7.12;56.11;99358.09;6193699;23;20414;-96
2023/11/19 11:39:59;;;;;;;5.82;3.17;;;;;;;7.23;55.88;99364.38;6169040;23;20020;-94
2023/11/19 11:42:27;;;;;;;8.40;5.47;;;;;;;7.42;55.63;99378.31;6169770;23;20432;-95
2023/11/19 11:45:07;;;;;;;4.75;3.30;;;;;;;7.37;55.23;99354.13;6194161;23;20007;-96
2023/11/19 11:47:42;;;;;;;5.97;3.10;;;;;;;7.59;55.58;99381.72;6146192;23;20063;-96
2023/11/19 11:50:14;;;;;;;4.35;3.03;;;;;;;7.57;55.88;99359.72;6196177;23;19998;-96
2023/11/19 11:52:58;;;;;;;;;;;;;;;7.76;54.48;99370.97;6170940;23;20019;-95
2023/11/19 11:55:49;;;;;;;4.00;2.50;;;;;;;7.75;53.06;99373.91;6193612;23;20346;-95
2023/11/19 11:58:22;;;;;;;3.95;2.83;;;;;;;7.59;53.51;99340.72;6181877;23;20399;-95
2023/11/19 12:00:48;;;;;;;6.93;3.28;;;;;;;7.70;53.34;99339.81;6144920;23;20011;-95
2023/11/19 12:03:16;;;;;;;4.28;3.38;;;;;;;7.74;53.45;99337.41;6144792;23;20004;-95
2023/11/19 12:05:45;;;;;;;4.13;3.30;;;;;;;7.98;53.79;99354.06;6168704;23;20471;-95
2023/11/19 12:08:12;;;;;;;4.97;3.58;;;;;;;7.97;53.04;99334.47;6145788;23;20001;-95